Time;durP1;ratioP1;P1;durP2;ratioP2;P2;SDS_P1;SDS_P2;PMS_P1;PMS_P2;Temp;Humidity;BMP_temperature;BMP_pressure;BME280_temperature;BME280_humidity;BME280_pressure;Samples;Min_cycle;Max_cycle;Signal;HPM_P1;HPM_P2
2021/09/27 00:02:13;;;;;;;;;;;;;;;5.85;100.00;99764.41;4965373;28;19918;-86
2021/09/27 00:04:38;;;;;;;;;;;;;;;5.74;100.00;99762.03;4965913;28;19922;-86
2021/09/27 00:07:03;;;;;;;;;;;;;;;5.69;100.00;99763.91;4966171;28;19917;-91
2021/09/27 00:09:32;;;;;;;;;;;;;;;5.54;100.00;99762.50;4966357;28;19960;-90
2021/09/27 00:12:10;;;;;;;;;;;;;;;5.53;100.00;99766.03;4983194;28;19984;-85
2021/09/27 00:14:36;;;;;;;;;;;;;;;5.46;100.00;99761.81;4983928;28;20400;-91
2021/09/27 00:17:03;;;;;;;;;;;;;;;5.50;100.00;99768.72;4983415;28;19914;-84
2021/09/27 00:19:28;;;;;;;;;;;;;;;5.36;100.00;99758.53;4982931;28;19922;-89
2021/09/27 00:21:55;;;;;;;;;;;;;;;5.41;100.00;99753.19;4990401;28;19925;-92
2021/09/27 00:24:21;;;;;;;;;;;;;;;5.82;100.00;99749.59;4990218;28;19922;-89
2021/09/27 00:26:46;;;;;;;;;;;;;;;5.89;100.00;99758.19;4965347;28;20400;-90
2021/09/27 00:29:12;;;;;;;;;;;;;;;5.90;100.00;99759.91;4965717;28;19921;-90
2021/09/27 00:31:37;;;;;;;;;;;;;;;5.80;100.00;99756.63;4965462;28;19969;-88
2021/09/27 00:34:02;;;;;;;;;;;;;;;5.79;100.00;99752.28;4983109;28;20008;-86
2021/09/27 00:36:28;;;;;;;;;;;;;;;5.85;100.00;99751.25;4966378;28;19969;-84
2021/09/27 00:38:53;;;;;;;;;;;;;;;5.57;100.00;99759.81;4989984;28;19922;-87
2021/09/27 00:41:19;;;;;;;;;;;;;;;5.62;100.00;99754.44;4983290;28;19922;-84
2021/09/27 00:43:45;;;;;;;;;;;;;;;5.68;100.00;99748.16;4990293;28;19918;-90
2021/09/27 00:46:12;;;;;;;;;;;;;;;5.63;100.00;99745.66;4963892;28;19922;-85
2021/09/27 00:48:38;;;;;;;;;;;;;;;5.65;100.00;99743.88;4965439;28;19956;-84
2021/09/27 00:51:06;;;;;;;;;;;;;;;5.55;100.00;99740.59;4982196;28;20352;-90
2021/09/27 00:53:37;;;;;;;;;;;;;;;5.52;100.00;99740.66;4967106;28;19965;-84
2021/09/27 00:56:03;;;;;;;;;;;;;;;5.50;100.00;99745.06;4986375;28;20289;-84
2021/09/27 00:58:29;;;;;;;;;;;;;;;5.45;100.00;99728.53;4986680;28;19960;-90
2021/09/27 01:00:54;;;;;;;;;;;;;;;5.46;100.00;99727.66;4984775;28;19965;-84
2021/09/27 07:45:14;;;;;;;;;;;;;;;4.77;96.62;99695.88;4996604;28;19984;-82
2021/09/27 07:47:39;;;;;;;;;;;;;;;4.78;96.97;99701.97;4985500;28;19932;-91
2021/09/27 07:50:05;;;;;;;;;;;;;;;4.82;96.53;99698.38;4986211;28;19914;-82
2021/09/27 07:52:31;;;;;;;;;;;;;;;4.84;97.12;99700.09;4986480;28;20368;-83
2021/09/27 07:54:56;;;;;;;;;;;;;;;16.89;93.75;99666.84;5003648;28;20024;-85
2021/09/27 07:57:21;;;;;;;;;;;;;;;8.62;88.54;99689.44;5000530;28;20348;-79
2021/09/27 07:59:48;;;;;;;;;;;;;;;6.41;99.28;99694.63;5003376;28;19924;-83
2021/09/27 08:02:18;;;;;;;;;;;;;;;5.87;100.00;99693.38;5002890;28;20364;-81
2021/09/27 08:04:43;;;;;;;;;;;;;;;5.59;100.00;99694.06;5002379;28;20281;-80
2021/09/27 08:07:08;;;;;;;;;;;;;;;5.49;100.00;99705.69;5003251;28;19944;-90
2021/09/27 08:09:34;;;;;;;;;;;;;;;5.30;99.08;99699.97;4980929;28;19921;-82
2021/09/27 08:11:59;;;;;;;;;;;;;;;5.28;98.74;99695.63;5001130;28;19917;-80
2021/09/27 08:14:24;;;;;;;;;;;;;;;5.23;98.88;99694.88;5001654;28;19945;-79
2021/09/27 08:16:49;;;;;;;;;;;;;;;5.23;98.25;99694.88;4984076;28;20344;-80
2021/09/27 08:19:18;;;;;;;;;;;;;;;5.19;98.45;99697.63;5002774;28;19929;-80
2021/09/27 08:21:43;;;;;;;;;;;;;;;5.13;98.43;99693.34;4992540;28;20026;-81
2021/09/27 08:24:08;;;;;;;;;;;;;;;5.07;98.28;99685.59;4999559;28;20345;-80
2021/09/27 08:26:33;;;;;;;;;;;;;;;5.05;98.47;99687.41;4998007;28;19924;-80
2021/09/27 08:28:59;;;;;;;;;;;;;;;5.12;98.33;99678.47;5001015;28;19928;-83
2021/09/27 08:31:24;;;;;;;;;;;;;;;5.14;98.08;99688.94;5002155;28;20403;-79
2021/09/27 08:33:50;;;;;;;;;;;;;;;5.11;98.27;99695.16;4993183;28;19917;-80
2021/09/27 08:36:17;;;;;;;;;;;;;;;4.99;98.58;99692.78;5002640;28;19921;-81
2021/09/27 08:38:43;;;;;;;;;;;;;;;5.11;98.84;99695.16;4992752;28;20380;-86
2021/09/27 08:41:29;;;;;;;;;;;;;;;5.11;98.76;99695.16;5002583;28;20000;-81
2021/09/27 08:43:54;;;;;;;;;;;;;;;5.08;98.54;99695.22;4983260;28;19972;-81
2021/09/27 08:46:26;;;;;;;;;;;;;;;5.15;98.92;99693.31;5002298;28;19976;-83
2021/09/27 08:49:01;;;;;;;;;;;;;;;5.16;98.87;99692.44;4983256;28;20136;-80
2021/09/27 08:51:26;;;;;;;;;;;;;;;5.20;98.99;99689.69;5001897;28;20376;-80
2021/09/27 08:53:52;;;;;;;;;;;;;;;5.15;98.83;99690.69;5002354;28;20024;-80
2021/09/27 08:56:23;;;;;;;;;;;;;;;5.08;99.03;99695.22;4980343;28;20369;-80
2021/09/27 08:59:14;;;;;;;;;;;;;;;5.14;99.36;99699.44;5000864;28;20028;-81
2021/09/27 09:01:46;;;;;;;;;;;;;;;5.17;99.90;99700.28;4998717;28;20288;-80
2021/09/27 09:04:25;;;;;;;;;;;;;;;5.13;99.77;99695.13;4984583;28;19918;-81
2021/09/27 09:06:56;;;;;;;;;;;;;;;5.13;99.57;99690.72;5002049;28;19918;-80
2021/09/27 09:09:29;;;;;;;;;;;;;;;5.10;99.79;99688.16;4984480;28;19918;-80
2021/09/27 09:12:11;;;;;;;;;;;;;;;5.12;100.00;99683.72;5001776;28;19924;-80
2021/09/27 09:14:45;;;;;;;;;;;;;;;5.14;100.00;99687.22;4985351;28;19921;-80
2021/09/27 09:17:19;;;;;;;;;;;;;;;5.12;100.00;99691.59;5005991;28;19918;-81
2021/09/27 09:19:46;;;;;;;;;;;;;;;5.17;100.00;99695.03;5004748;28;20353;-80
2021/09/27 09:22:15;;;;;;;;;;;;;;;5.23;100.00;99692.25;5005978;28;19918;-80
2021/09/27 09:24:40;;;;;;;;;;;;;;;5.15;100.00;99691.53;5005546;28;19925;-81
2021/09/27 09:27:09;;;;;;;;;;;;;;;5.18;100.00;99696.72;5004860;28;19917;-81
2021/09/27 09:29:36;;;;;;;;;;;;;;;5.22;100.00;99697.53;4987858;28;19922;-81
2021/09/27 09:32:11;;;;;;;;;;;;;;;5.24;100.00;99696.59;5005604;28;19925;-83
2021/09/27 09:34:37;;;;;;;;;;;;;;;5.28;100.00;99687.75;5005395;28;19925;-80
2021/09/27 09:37:08;;;;;;;;;;;;;;;5.26;100.00;99696.56;5005987;28;19917;-81
2021/09/27 09:39:36;;;;;;;;;;;;;;;5.18;100.00;99680.97;5005559;28;19972;-80
2021/09/27 09:42:04;;;;;;;;;;;;;;;5.17;100.00;99689.75;4994526;28;19918;-80
2021/09/27 09:44:35;;;;;;;;;;;;;;;5.26;100.00;99689.56;4987275;28;19988;-81
2021/09/27 09:47:05;;;;;;;;;;;;;;;5.21;100.00;99683.53;5004330;28;19968;-84
2021/09/27 09:49:51;;;;;;;;;;;;;;;5.13;100.00;99685.47;4995755;28;19968;-81
2021/09/27 09:52:24;;;;;;;;;;;;;;;5.20;100.00;99687.06;4986220;28;19997;-80
2021/09/27 09:54:50;;;;;;;;;;;;;;;5.25;100.00;99693.09;5004402;28;19922;-83
2021/09/27 09:57:20;;;;;;;;;;;;;;;5.15;100.00;99696.78;5003948;28;20395;-80
2021/09/27 09:59:54;;;;;;;;;;;;;;;5.31;100.00;99692.06;4996466;28;19921;-80
2021/09/27 10:02:21;;;;;;;;;;;;;;;5.35;100.00;99693.72;5005148;28;20352;-80
2021/09/27 10:04:53;;;;;;;;;;;;;;;5.24;100.00;99690.47;5005598;28;19925;-80
2021/09/27 10:07:24;;;;;;;;;;;;;;;5.20;100.00;99684.44;4995337;28;19933;-80
2021/09/27 10:09:59;;;;;;;;;;;;;;;5.26;100.00;99679.06;5004423;28;20646;-81
2021/09/27 10:12:42;;;;;;;;;;;;;;;5.28;100.00;99679.88;5003510;28;20004;-80
2021/09/27 10:15:12;;;;;;;;;;;;;;;5.36;100.00;99679.69;4995100;28;19922;-84
2021/09/27 10:17:38;;;;;;;;;;;;;;;5.25;100.00;99682.56;4994701;28;19917;-90
2021/09/27 10:20:06;;;;;;;;;;;;;;;5.37;100.00;99681.41;5005061;28;19928;-80
2021/09/27 10:22:37;;;;;;;;;;;;;;;5.32;100.00;99685.91;5003930;28;19921;-81
2021/09/27 10:25:22;;;;;;;;;;;;;;;5.39;100.00;99689.25;4994334;28;19928;-85
2021/09/27 10:27:47;;;;;;;;;;;;;;;5.35;100.00;99682.38;4985603;28;20269;-82
2021/09/27 10:30:18;;;;;;;;;;;;;;;5.35;100.00;99677.97;4987530;28;19972;-81
2021/09/27 10:32:56;;;;;;;;;;;;;;;5.35;100.00;99690.25;5002677;28;19976;-86
2021/09/27 10:35:28;;;;;;;;;;;;;;;5.37;100.00;99684.03;4987394;28;20395;-90
2021/09/27 10:38:05;;;;;;;;;;;;;;;5.32;100.00;99683.28;5004259;28;19922;-88
2021/09/27 10:40:31;;;;;;;;;;;;;;;5.37;100.00;99672.69;5003129;28;20386;-84
2021/09/27 10:42:57;;;;;;;;;;;;;;;5.33;100.00;99671.00;4985439;28;19960;-83
2021/09/27 10:45:23;;;;;;;;;;;;;;;5.36;100.00;99671.81;4994659;28;20413;-80
2021/09/27 10:47:54;;;;;;;;;;;;;;;5.42;100.00;99657.66;5004756;28;19928;-83
2021/09/27 10:50:25;;;;;;;;;;;;;;;5.40;100.00;99651.59;4987026;28;19914;-91
2021/09/27 10:52:50;;;;;;;;;;;;;;;5.35;100.00;99662.19;5001765;28;19921;-81
2021/09/27 10:55:18;;;;;;;;;;;;;;;5.32;100.00;99658.78;4994719;28;19924;-81
2021/09/27 10:57:47;;;;;;;;;;;;;;;5.32;100.00;99662.28;4992483;28;19925;-87
2021/09/27 11:00:19;;;;;;;;;;;;;;;5.30;100.00;99644.81;5003512;28;19917;-85
2021/09/27 11:02:54;;;;;;;;;;;;;;;5.32;100.00;99657.00;4998068;28;19922;-81
2021/09/27 11:05:22;;;;;;;;;;;;;;;5.30;100.00;99648.31;5003227;28;20020;-88
2021/09/27 11:07:50;;;;;;;;;;;;;;;5.41;100.00;99645.44;5002756;28;19928;-80
2021/09/27 11:10:27;;;;;;;;;;;;;;;5.44;100.00;99643.59;4994368;28;19921;-80
2021/09/27 11:12:53;;;;;;;;;;;;;;;5.34;100.00;99643.84;5002846;28;20407;-82
2021/09/27 11:15:40;;;;;;;;;;;;;;;5.39;100.00;99642.84;5003915;28;19922;-88
2021/09/27 11:18:14;;;;;;;;;;;;;;;5.37;100.00;99649.03;5003556;28;19921;-86
2021/09/27 11:20:46;;;;;;;;;;;;;;;5.44;100.00;99654.09;4986023;28;19924;-81
2021/09/27 11:23:20;;;;;;;;;;;;;;;5.45;100.00;99653.19;4993983;28;19925;-80
2021/09/27 11:26:05;;;;;;;;;;;;;;;5.39;100.00;99656.00;5003124;28;19918;-82
2021/09/27 11:28:43;;;;;;;;;;;;;;;5.40;100.00;99665.56;4984523;28;19918;-85
2021/09/27 11:31:26;;;;;;;;;;;;;;;5.37;100.00;99654.28;5003368;28;19940;-81
2021/09/27 11:33:53;;;;;;;;;;;;;;;5.42;100.00;99650.63;4993928;28;20004;-81
2021/09/27 11:36:27;;;;;;;;;;;;;;;5.36;100.00;99647.28;5003298;28;19953;-82
2021/09/27 11:39:22;;;;;;;;;;;;;;;5.37;100.00;99649.03;4993612;28;20486;-80
2021/09/27 11:42:07;;;;;;;;;;;;;;;5.37;100.00;99651.66;4983483;28;19925;-81
2021/09/27 11:44:34;;;;;;;;;;;;;;;5.43;100.00;99648.88;5002862;28;19968;-81
2021/09/27 11:47:03;;;;;;;;;;;;;;;5.39;100.00;99648.09;4993332;28;20342;-89
2021/09/27 11:49:35;;;;;;;;;;;;;;;5.35;100.00;99642.94;5002775;28;20008;-86
2021/09/27 11:52:04;;;;;;;;;;;;;;;5.35;100.00;99646.44;5003124;28;19921;-81
2021/09/27 11:54:40;;;;;;;;;;;;;;;5.41;100.00;99651.53;4993646;28;20262;-80
2021/09/27 11:57:19;;;;;;;;;;;;;;;5.52;100.00;99647.78;5002105;28;19964;-80
2021/09/27 11:59:47;;;;;;;;;;;;;;;5.41;100.00;99650.69;5003591;28;19965;-89
2021/09/27 12:02:19;;;;;;;;;;;;;;;5.36;100.00;99644.66;4993628;28;20309;-86
2021/09/27 12:04:53;;;;;;;;;;;;;;;5.49;100.00;99648.75;4985319;28;19917;-91
2021/09/27 12:07:20;;;;;;;;;;;;;;;5.46;100.00;99651.44;4992578;28;20402;-90
2021/09/27 12:09:51;;;;;;;;;;;;;;;5.39;100.00;99647.22;5002719;28;20519;-80
2021/09/27 12:12:27;;;;;;;;;;;;;;;5.44;100.00;99640.97;5001137;28;19921;-81
2021/09/27 12:14:53;;;;;;;;;;;;;;;5.49;100.00;99648.75;5002337;28;19921;-80
2021/09/27 12:17:21;;;;;;;;;;;;;;;5.38;100.00;99646.38;4985822;28;19964;-80
2021/09/27 12:19:46;;;;;;;;;;;;;;;5.43;100.00;99654.13;4985064;28;19918;-82
2021/09/27 12:22:19;;;;;;;;;;;;;;;5.35;100.00;99640.31;4993249;28;20008;-81
2021/09/27 12:24:44;;;;;;;;;;;;;;;5.36;100.00;99640.28;4984870;28;20329;-81
2021/09/27 12:27:14;;;;;;;;;;;;;;;5.41;100.00;99629.66;4979920;28;20076;-92
2021/09/27 12:29:57;;;;;;;;;;;;;;;5.58;100.00;99637.97;4993025;28;19918;-81
2021/09/27 12:32:28;;;;;;;;;;;;;;;5.44;99.96;99619.94;4985198;28;19926;-80
2021/09/27 12:34:54;;;;;;;;;;;;;;;5.36;99.72;99615.75;4992712;28;19925;-81
2021/09/27 12:37:20;;;;;;;;;;;;;;;5.36;100.00;99621.00;4985679;28;20009;-80
2021/09/27 12:39:46;;;;;;;;;;;;;;;5.46;99.89;99614.66;4985480;28;19917;-81
2021/09/27 12:42:18;;;;;;;;;;;;;;;5.46;99.75;99617.28;4983995;28;19960;-80
2021/09/27 12:44:45;;;;;;;;;;;;;;;5.46;100.00;99618.13;4984826;28;19997;-81
2021/09/27 12:47:10;;;;;;;;;;;;;;;5.45;99.79;99608.50;5002268;28;19925;-84
2021/09/27 12:49:36;;;;;;;;;;;;;;;5.50;99.69;99624.16;5004934;28;19921;-85
2021/09/27 12:52:02;;;;;;;;;;;;;;;5.39;100.00;99610.44;4996803;28;19921;-88
2021/09/27 12:54:37;;;;;;;;;;;;;;;5.51;100.00;99610.13;5007044;28;20004;-91
2021/09/27 12:57:06;;;;;;;;;;;;;;;5.39;100.00;99603.44;4995966;28;19921;-88
2021/09/27 12:59:33;;;;;;;;;;;;;;;5.39;99.97;99600.81;5004775;28;20000;-89
2021/09/27 13:02:00;;;;;;;;;;;;;;;5.46;99.89;99612.03;5006037;28;20385;-84
2021/09/27 13:04:28;;;;;;;;;;;;;;;5.51;99.48;99607.50;4989471;28;19918;-81
2021/09/27 13:06:58;;;;;;;;;;;;;;;5.41;99.79;99599.00;4996042;28;19932;-86
2021/09/27 13:09:26;;;;;;;;;;;;;;;5.40;100.00;99589.38;4988928;28;20340;-81
2021/09/27 13:12:27;;;;;;;;;;;;;;;5.45;99.85;99576.13;4989422;28;20366;-81
2021/09/27 13:15:02;;;;;;;;;;;;;;;5.37;100.00;99570.19;4920177;29;20017;-84
2021/09/27 13:17:28;;;;;;;;;;;;;;;5.48;100.00;99575.19;4978693;28;19918;-81
2021/09/27 13:19:55;;;;;;;;;;;;;;;5.50;100.00;99571.59;5004433;28;19921;-86
2021/09/27 13:22:23;;;;;;;;;;;;;;;5.41;100.00;99545.59;4996705;28;19914;-90
2021/09/27 13:25:08;;;;;;;;;;;;;;;5.46;100.00;99527.94;5004004;28;19924;-91
2021/09/27 13:27:40;;;;;;;;;;;;;;;5.54;100.00;99578.53;4994039;28;19942;-80
2021/09/27 13:30:35;;;;;;;;;;;;;;;5.49;100.00;99600.56;4988043;28;19969;-82
2021/09/27 13:33:05;;;;;;;;;;;;;;;5.58;100.00;99601.19;4986387;28;19925;-81
2021/09/27 13:35:36;;;;;;;;;;;;;;;5.57;100.00;99612.63;5005481;28;19996;-80
2021/09/27 13:38:05;;;;;;;;;;;;;;;5.57;100.00;99617.03;4996057;28;19921;-81
2021/09/27 13:40:32;;;;;;;;;;;;;;;5.58;100.00;99622.22;5004410;28;19918;-83
2021/09/27 13:43:07;;;;;;;;;;;;;;;5.54;100.00;99622.34;5003790;28;20012;-86
2021/09/27 13:45:35;;;;;;;;;;;;;;;5.53;100.00;99624.09;4996002;28;20335;-82
2021/09/27 13:48:00;;;;;;;;;;;;;;;5.50;100.00;99626.78;4987725;28;19922;-80
2021/09/27 13:50:25;;;;;;;;;;;;;;;5.56;100.00;99624.03;5005094;28;20005;-81
2021/09/27 13:52:57;;;;;;;;;;;;;;;5.60;100.00;99615.16;5005436;28;20296;-80
2021/09/27 13:55:23;;;;;;;;;;;;;;;5.55;100.00;99624.94;5003922;28;20381;-84
2021/09/27 13:57:48;;;;;;;;;;;;;;;5.58;100.00;99618.72;4985968;28;20029;-82
2021/09/27 14:00:14;;;;;;;;;;;;;;;5.58;100.00;99622.22;5004999;28;19925;-80
2021/09/27 14:02:40;;;;;;;;;;;;;;;5.64;100.00;99622.06;4987800;28;19921;-80
2021/09/27 14:05:05;;;;;;;;;;;;;;;5.55;100.00;99609.16;4987296;28;19921;-80
2021/09/27 14:07:31;;;;;;;;;;;;;;;5.48;100.00;99606.72;4995497;28;19921;-80
2021/09/27 14:09:56;;;;;;;;;;;;;;;5.48;100.00;99610.22;4988075;28;19922;-81
2021/09/27 14:12:21;;;;;;;;;;;;;;;5.50;100.00;99618.06;4994130;28;20349;-88
2021/09/27 14:14:46;;;;;;;;;;;;;;;5.55;100.00;99616.16;5004848;28;19964;-87
2021/09/27 14:17:12;;;;;;;;;;;;;;;5.55;100.00;99611.81;5005421;28;19922;-89
2021/09/27 14:19:37;;;;;;;;;;;;;;;5.57;100.00;99623.13;5005650;28;19922;-80
2021/09/27 14:22:05;;;;;;;;;;;;;;;5.57;100.00;99620.50;4987026;28;19932;-81
2021/09/27 14:24:30;;;;;;;;;;;;;;;5.56;100.00;99628.41;5005113;28;19921;-81
2021/09/27 14:26:58;;;;;;;;;;;;;;;5.55;100.00;99635.44;5004100;28;20012;-81
2021/09/27 14:29:23;;;;;;;;;;;;;;;5.52;100.00;99638.16;5004033;28;19921;-80
2021/09/27 14:31:48;;;;;;;;;;;;;;;5.51;100.00;99641.69;5005155;28;20012;-81
2021/09/27 14:34:13;;;;;;;;;;;;;;;5.60;100.00;99644.09;5004565;28;19924;-80
2021/09/27 14:36:39;;;;;;;;;;;;;;;5.62;100.00;99639.66;5004997;28;20008;-90
2021/09/27 14:39:04;;;;;;;;;;;;;;;5.61;100.00;99632.66;5004523;28;19925;-80
2021/09/27 14:41:30;;;;;;;;;;;;;;;5.64;100.00;99632.56;5004931;28;19930;-83
2021/09/27 14:43:55;;;;;;;;;;;;;;;5.57;100.00;99636.28;5002866;28;19922;-80
2021/09/27 14:46:21;;;;;;;;;;;;;;;5.61;100.00;99631.78;4994610;28;19922;-82
2021/09/27 14:48:48;;;;;;;;;;;;;;;5.59;100.00;99638.88;5004374;28;19979;-80
2021/09/27 14:51:14;;;;;;;;;;;;;;;5.52;100.00;99637.28;4986708;28;19953;-82
2021/09/27 14:53:39;;;;;;;;;;;;;;;5.51;100.00;99633.78;5004705;28;19961;-90
2021/09/27 14:56:04;;;;;;;;;;;;;;;5.56;100.00;99637.16;5003861;28;19922;-81
2021/09/27 14:58:30;;;;;;;;;;;;;;;5.54;100.00;99632.88;5002891;28;19925;-80
2021/09/27 15:00:56;;;;;;;;;;;;;;;5.60;100.00;99627.44;4986624;28;19924;-90
2021/09/27 15:03:23;;;;;;;;;;;;;;;5.59;100.00;99629.19;5003775;28;19922;-90
2021/09/27 15:05:49;;;;;;;;;;;;;;;5.59;100.00;99631.81;4986397;28;19924;-81
2021/09/27 15:08:14;;;;;;;;;;;;;;;5.53;100.00;99629.34;5003870;28;19921;-80
2021/09/27 15:10:40;;;;;;;;;;;;;;;5.64;100.00;99631.72;5003552;28;19925;-91
2021/09/27 15:13:06;;;;;;;;;;;;;;;5.66;100.00;99634.31;5001887;28;19921;-80
2021/09/27 15:15:32;;;;;;;;;;;;;;;5.60;99.93;99640.56;4986106;28;19918;-81
2021/09/27 15:17:57;;;;;;;;;;;;;;;5.63;100.00;99640.50;4985991;28;19917;-84
2021/09/27 15:20:25;;;;;;;;;;;;;;;5.66;100.00;99639.56;5004239;28;19925;-90
2021/09/27 15:22:52;;;;;;;;;;;;;;;5.61;100.00;99645.78;5003573;28;19918;-81
2021/09/27 15:25:29;;;;;;;;;;;;;;;5.60;100.00;99653.72;5004335;28;19917;-81
2021/09/27 15:27:54;;;;;;;;;;;;;;;5.58;100.00;99653.75;4992798;28;19933;-81
2021/09/27 15:30:19;;;;;;;;;;;;;;;5.56;100.00;99655.56;4994204;28;19913;-90
2021/09/27 15:32:45;;;;;;;;;;;;;;;5.63;100.00;99657.16;5002683;28;19964;-81
2021/09/27 15:35:10;;;;;;;;;;;;;;;5.66;100.00;99650.94;4985983;28;20361;-88
2021/09/27 15:37:35;;;;;;;;;;;;;;;5.64;100.00;99652.75;5004028;28;19957;-83
2021/09/27 15:40:00;;;;;;;;;;;;;;;5.70;100.00;99649.97;5003567;28;19922;-85
2021/09/27 15:42:26;;;;;;;;;;;;;;;5.64;100.00;99645.72;5002048;28;20410;-82
2021/09/27 15:44:52;;;;;;;;;;;;;;;5.70;100.00;99652.59;4985814;28;20371;-91
2021/09/27 15:47:17;;;;;;;;;;;;;;;5.74;100.00;99648.97;5002606;28;20368;-80
2021/09/27 15:49:43;;;;;;;;;;;;;;;5.73;100.00;99643.78;5003020;28;19918;-91
2021/09/27 15:52:09;;;;;;;;;;;;;;;5.69;100.00;99636.88;5002255;28;19918;-81
2021/09/27 15:54:35;;;;;;;;;;;;;;;5.72;100.00;99645.53;4985135;28;20000;-81
2021/09/27 15:57:00;;;;;;;;;;;;;;;5.76;100.00;99652.44;5002112;28;20045;-81
2021/09/27 15:59:26;;;;;;;;;;;;;;;5.73;100.00;99646.41;4985928;28;19979;-81
2021/09/27 16:01:55;;;;;;;;;;;;;;;5.80;100.00;99648.81;5003077;28;19917;-88
2021/09/27 16:04:21;;;;;;;;;;;;;;;5.68;99.99;99643.91;4985588;28;19921;-85
2021/09/27 16:06:46;;;;;;;;;;;;;;;5.64;100.00;99655.38;5004097;28;19925;-88
2021/09/27 16:09:12;;;;;;;;;;;;;;;5.71;100.00;99648.19;4985118;28;20388;-83
2021/09/27 16:11:37;;;;;;;;;;;;;;;5.76;100.00;99651.56;4993388;28;19948;-81
2021/09/27 16:14:04;;;;;;;;;;;;;;;5.73;100.00;99644.63;5003228;28;19918;-83
2021/09/27 16:16:30;;;;;;;;;;;;;;;5.72;99.83;99644.69;4993184;28;19918;-81
2021/09/27 16:18:56;;;;;;;;;;;;;;;5.70;99.80;99651.75;5003342;28;20271;-92
2021/09/27 16:21:21;;;;;;;;;;;;;;;5.70;99.76;99646.50;5002755;28;19917;-85
2021/09/27 16:23:47;;;;;;;;;;;;;;;5.68;100.00;99651.78;5003312;28;19972;-81
2021/09/27 16:26:13;;;;;;;;;;;;;;;5.68;100.00;99658.78;4984331;28;19925;-81
2021/09/27 16:28:40;;;;;;;;;;;;;;;5.78;99.73;99655.03;5001566;28;19940;-81
2021/09/27 16:31:06;;;;;;;;;;;;;;;5.77;99.88;99654.16;4984707;28;19925;-80
2021/09/27 16:33:31;;;;;;;;;;;;;;;5.71;99.32;99658.72;5002472;28;19922;-81
2021/09/27 16:35:56;;;;;;;;;;;;;;;5.67;99.55;99650.03;5001755;28;19925;-86
2021/09/27 16:38:22;;;;;;;;;;;;;;;5.71;99.38;99653.44;5002610;28;19922;-81
2021/09/27 16:40:47;;;;;;;;;;;;;;;5.71;99.71;99662.22;5002356;28;19918;-81
2021/09/27 16:43:12;;;;;;;;;;;;;;;5.68;99.61;99664.03;5000894;28;19963;-80
2021/09/27 16:45:38;;;;;;;;;;;;;;;5.76;99.74;99664.72;5002355;28;19917;-80
2021/09/27 16:48:03;;;;;;;;;;;;;;;5.74;99.28;99664.75;5002621;28;20311;-87
2021/09/27 16:50:30;;;;;;;;;;;;;;;5.67;99.55;99665.81;5002405;28;20377;-81
2021/09/27 16:52:55;;;;;;;;;;;;;;;5.78;99.51;99661.16;5002400;28;19917;-81
2021/09/27 16:55:20;;;;;;;;;;;;;;;5.73;99.39;99656.94;5002465;28;20016;-81
2021/09/27 16:57:47;;;;;;;;;;;;;;;5.74;99.68;99663.91;5001137;28;19917;-84
2021/09/27 17:00:12;;;;;;;;;;;;;;;5.75;99.43;99660.38;5002443;28;19921;-82
2021/09/27 17:02:38;;;;;;;;;;;;;;;5.80;99.44;99669.84;5002223;28;19972;-88
2021/09/27 17:05:03;;;;;;;;;;;;;;;5.73;99.32;99664.81;5002622;28;20300;-81
2021/09/27 17:07:30;;;;;;;;;;;;;;;5.76;99.04;99662.09;5002307;28;19922;-81
2021/09/27 17:09:56;;;;;;;;;;;;;;;5.79;99.67;99669.91;5003445;28;19917;-82
2021/09/27 17:12:22;;;;;;;;;;;;;;;5.75;99.48;99673.53;5000810;28;20244;-81
2021/09/27 17:20:05;;;;;;;;;;;;;;;5.78;99.57;99692.72;5002496;28;20288;-84
2021/09/27 17:22:31;;;;;;;;;;;;;;;5.80;99.67;99695.28;5002611;28;19924;-92
2021/09/27 17:24:56;;;;;;;;;;;;;;;5.70;99.48;99693.81;5002088;28;19944;-86
2021/09/27 17:27:23;;;;;;;;;;;;;;;5.79;100.00;99698.81;4982610;28;20266;-81
2021/09/27 17:29:51;;;;;;;;;;;;;;;5.74;100.00;99693.66;5002476;28;19918;-81
2021/09/27 17:32:16;;;;;;;;;;;;;;;5.80;100.00;99711.06;5002121;28;19975;-83
2021/09/27 17:34:42;;;;;;;;;;;;;;;5.75;100.00;99719.06;4986095;28;19917;-85
2021/09/27 17:37:08;;;;;;;;;;;;;;;5.78;100.00;99726.88;4996499;28;19921;-82
2021/09/27 17:39:34;;;;;;;;;;;;;;;5.83;100.00;99738.16;5001969;28;19933;-85
2021/09/27 17:41:59;;;;;;;;;;;;;;;5.86;100.00;99737.22;4996141;28;19925;-81
2021/09/27 17:44:25;;;;;;;;;;;;;;;5.87;99.95;99738.97;4987615;28;19925;-81
2021/09/27 17:46:50;;;;;;;;;;;;;;;5.82;100.00;99740.81;4987712;28;19995;-81
2021/09/27 17:49:16;;;;;;;;;;;;;;;5.79;100.00;99743.53;5005234;28;19917;-81
2021/09/27 17:51:42;;;;;;;;;;;;;;;5.84;100.00;99749.56;4985361;28;19921;-92
2021/09/27 17:54:07;;;;;;;;;;;;;;;5.79;100.00;99759.28;5005134;28;20335;-86
2021/09/27 17:56:33;;;;;;;;;;;;;;;5.83;100.00;99763.59;4986891;28;20166;-91
2021/09/27 17:58:58;;;;;;;;;;;;;;;5.83;100.00;99772.34;4983624;28;19913;-80
2021/09/27 18:01:24;;;;;;;;;;;;;;;5.77;100.00;99784.78;4995823;28;19972;-92
2021/09/27 18:03:49;;;;;;;;;;;;;;;5.88;100.00;99795.03;5006334;28;19925;-88
2021/09/27 18:06:15;;;;;;;;;;;;;;;5.91;100.00;99789.72;4988967;28;20351;-91
2021/09/27 18:08:40;;;;;;;;;;;;;;;5.94;100.00;99795.75;4996023;28;19918;-84
2021/09/27 18:11:10;;;;;;;;;;;;;;;5.91;100.00;99810.75;5002303;28;20112;-81
2021/09/27 18:13:35;;;;;;;;;;;;;;;5.79;100.00;99819.78;4986887;28;20381;-81
2021/09/27 18:16:02;;;;;;;;;;;;;;;5.83;99.81;99831.97;5005214;28;19925;-92
2021/09/27 18:18:27;;;;;;;;;;;;;;;5.89;100.00;99837.09;5001463;28;20443;-87
2021/09/27 18:20:52;;;;;;;;;;;;;;;5.78;99.38;99845.22;4988052;28;19917;-91
2021/09/27 18:23:21;;;;;;;;;;;;;;;5.68;99.68;99850.69;5004097;28;19967;-82
2021/09/27 18:25:46;;;;;;;;;;;;;;;5.64;99.49;99858.66;5005723;28;19921;-84
2021/09/27 18:28:11;;;;;;;;;;;;;;;5.60;98.01;99867.53;4993971;28;19925;-85
2021/09/27 18:30:37;;;;;;;;;;;;;;;5.58;97.81;99869.28;5003945;28;20032;-80
2021/09/27 18:33:05;;;;;;;;;;;;;;;5.50;98.21;99863.34;4986947;28;20377;-92
2021/09/27 18:35:32;;;;;;;;;;;;;;;5.63;97.97;99877.97;4987305;28;19917;-85
2021/09/27 18:37:58;;;;;;;;;;;;;;;5.81;99.41;99879.34;5004844;28;19967;-83
2021/09/27 18:40:23;;;;;;;;;;;;;;;5.71;99.19;99884.81;4987193;28;19970;-84
2021/09/27 18:42:48;;;;;;;;;;;;;;;5.75;99.38;99892.59;5000062;28;19925;-91
2021/09/27 18:45:14;;;;;;;;;;;;;;;5.98;100.00;99894.78;4987238;28;20390;-81
2021/09/27 18:47:41;;;;;;;;;;;;;;;5.73;97.85;99904.94;5005148;28;19918;-81
2021/09/27 18:50:07;;;;;;;;;;;;;;;5.59;98.43;99901.72;5003329;28;19917;-80
2021/09/27 18:52:32;;;;;;;;;;;;;;;5.56;98.44;99915.78;5004362;28;20379;-80
2021/09/27 18:54:58;;;;;;;;;;;;;;;5.57;97.25;99907.00;5005026;28;19918;-83
2021/09/27 18:57:23;;;;;;;;;;;;;;;5.48;97.42;99914.22;5002826;28;19926;-85
2021/09/27 18:59:48;;;;;;;;;;;;;;;5.38;96.84;99921.44;5004316;28;19922;-90
2021/09/27 19:02:13;;;;;;;;;;;;;;;5.46;96.59;99930.03;5004332;28;19929;-80
2021/09/27 19:04:39;;;;;;;;;;;;;;;5.46;96.14;99919.50;5003949;28;20323;-84
2021/09/27 19:07:04;;;;;;;;;;;;;;;5.39;96.12;99925.75;4986905;28;19922;-82
2021/09/27 19:09:29;;;;;;;;;;;;;;;5.36;96.65;99929.34;5003743;28;19922;-90
2021/09/27 19:11:54;;;;;;;;;;;;;;;5.40;96.53;99931.00;5003306;28;20246;-87
2021/09/27 19:14:20;;;;;;;;;;;;;;;5.49;95.99;99937.84;4993413;28;19930;-80
2021/09/27 19:16:45;;;;;;;;;;;;;;;5.44;95.50;99944.94;5001208;28;20045;-82
2021/09/27 19:19:10;;;;;;;;;;;;;;;6.00;97.11;99948.22;5004292;28;19917;-88
2021/09/27 19:21:36;;;;;;;;;;;;;;;5.74;96.93;99947.84;4976724;28;19917;-86
2021/09/27 19:24:01;;;;;;;;;;;;;;;5.64;97.13;99968.22;4975969;28;19918;-87
2021/09/27 19:26:28;;;;;;;;;;;;;;;5.47;96.36;99971.16;4977257;28;19918;-85
2021/09/27 19:28:53;;;;;;;;;;;;;;;5.48;95.55;99970.28;4993534;28;20017;-88
2021/09/27 19:31:20;;;;;;;;;;;;;;;5.42;95.33;99949.34;4994739;28;19946;-87
2021/09/27 19:33:46;;;;;;;;;;;;;;;5.35;95.88;99971.41;4977375;28;19922;-90
2021/09/27 19:36:12;;;;;;;;;;;;;;;5.37;95.32;99985.38;4976873;28;19921;-90
2021/09/27 19:38:37;;;;;;;;;;;;;;;5.38;95.88;99984.50;4976681;28;19917;-84
2021/09/27 19:41:03;;;;;;;;;;;;;;;5.31;95.88;99996.84;4977097;28;19928;-89
2021/09/27 19:43:29;;;;;;;;;;;;;;;5.34;95.90;99986.28;4985370;28;19922;-88